PWSweather.com
Personal Weather Stations
Station Observations
AC5JC
Greenleaf Peninsula, Waco, Waco, TX 76710

Greenleaf Peninsula, WacoWaco, TX 76710

Lat: 31.565, Lon: -97.198

Elevation: 570

Station Type: Ambient WS-1400IP

http://ac5jc.dyndns.org

Latest ConditionsUpdated 4:51:00 AM CST Tuesday, Dec 10, 2019
Currently Today's Max Today's Min Today's Average
Temperature 40.5°F4.7°C 48.2°F9.0°C 40.5°F4.7°C 44.0°F6.7°C
Dew Point 39.8°F4.3°C 39.9°F4.4°C 35.2°F1.8°C 36.6°F2.6°C
Winds 9.6 mph N15.4 kmh N 14.4 mph -23.2 kmh - - 6.6 mph 10.6 kmh
Wind Gusts 12.5 mph20.1 kmh 22.6 mph36.4 kmh - -
Humidity 97% 97% 61% 76%
Pressure 30.16 in1021.3 mb 30.19 in1022.4 mb 30.08 in1018.6 mb -
Precipitation - 0.02 in0.5 mm - -
Hour Temp Dew Point Humidity Winds Wind Gusts Pressure Precip Precip Rate Daily Precip Total
04:51 AM 40.5°F4.7°C 39.8°F4.3°C 97% 9.6 mph N15.4 kmh N 12.5 mph20.1 kmh 30.16 in1021.3 mb 0.02 in0.5 mm 0.00 in0.0 mm 0.02 in0.5 mm
04:48 AM 40.7°F4.8°C 39.9°F4.4°C 97% 9.9 mph NNW15.9 kmh NNW 15.0 mph24.1 kmh 30.16 in1021.3 mb 0.02 in0.5 mm 0.00 in0.0 mm 0.02 in0.5 mm
04:45 AM 40.8°F4.9°C 39.8°F4.3°C 96% 3.9 mph W6.3 kmh W 12.5 mph20.1 kmh 30.18 in1022.0 mb 0.02 in0.5 mm 0.00 in0.0 mm 0.02 in0.5 mm
04:42 AM 40.8°F4.9°C 39.7°F4.3°C 96% 6.3 mph NW10.1 kmh NW 12.5 mph20.1 kmh 30.17 in1021.7 mb 0.02 in0.5 mm 0.00 in0.0 mm 0.02 in0.5 mm
04:39 AM 40.9°F4.9°C 39.4°F4.1°C 94% 7.2 mph NNW11.6 kmh NNW 12.5 mph20.1 kmh 30.17 in1021.7 mb 0.02 in0.5 mm 0.00 in0.0 mm 0.02 in0.5 mm
04:36 AM 41.0°F5.0°C 39.3°F4.1°C 94% 6.0 mph NW9.7 kmh NW 7.6 mph12.2 kmh 30.17 in1021.7 mb 0.02 in0.5 mm 0.00 in0.0 mm 0.02 in0.5 mm
04:33 AM 41.0°F5.0°C 39.2°F4.0°C 93% 4.9 mph NW7.9 kmh NW 10.1 mph16.3 kmh 30.18 in1022.0 mb 0.02 in0.5 mm 0.00 in0.0 mm 0.02 in0.5 mm
04:30 AM 41.2°F5.1°C 39.1°F3.9°C 92% 5.2 mph NNW8.4 kmh NNW 7.6 mph12.2 kmh 30.18 in1022.0 mb 0.02 in0.5 mm 0.00 in0.0 mm 0.02 in0.5 mm
04:27 AM 41.1°F5.1°C 38.7°F3.7°C 91% 5.7 mph NW9.2 kmh NW 10.1 mph16.3 kmh 30.18 in1022.0 mb 0.02 in0.5 mm 0.00 in0.0 mm 0.02 in0.5 mm
04:24 AM 41.0°F5.0°C 38.6°F3.7°C 91% 8.2 mph N13.2 kmh N 12.5 mph20.1 kmh 30.19 in1022.4 mb 0.02 in0.5 mm 0.40 in10.2 mm 0.02 in0.5 mm
04:21 AM 41.2°F5.1°C 38.5°F3.6°C 90% 5.8 mph NW9.3 kmh NW 10.1 mph16.3 kmh 30.18 in1022.0 mb 0.00 in0.0 mm 0.00 in0.0 mm 0.00 in0.0 mm
04:18 AM 41.3°F5.2°C 38.6°F3.7°C 90% 7.0 mph WNW11.3 kmh WNW 12.5 mph20.1 kmh 30.19 in1022.4 mb 0.00 in0.0 mm 0.00 in0.0 mm 0.00 in0.0 mm
04:15 AM 41.5°F5.3°C 38.5°F3.6°C 89% 4.5 mph NW7.2 kmh NW 7.6 mph12.2 kmh 30.19 in1022.4 mb 0.00 in0.0 mm 0.00 in0.0 mm 0.00 in0.0 mm
04:12 AM 41.4°F5.2°C 38.1°F3.4°C 88% 2.6 mph NW4.2 kmh NW 7.6 mph12.2 kmh 30.19 in1022.4 mb 0.00 in0.0 mm 0.00 in0.0 mm 0.00 in0.0 mm
04:09 AM 41.5°F5.3°C 37.7°F3.2°C 86% 3.9 mph WNW6.3 kmh WNW 10.1 mph16.3 kmh 30.19 in1022.4 mb 0.00 in0.0 mm 0.00 in0.0 mm 0.00 in0.0 mm
04:06 AM 41.5°F5.3°C 37.5°F3.1°C 86% 4.9 mph NW7.9 kmh NW 10.1 mph16.3 kmh 30.18 in1022.0 mb 0.00 in0.0 mm 0.00 in0.0 mm 0.00 in0.0 mm
04:03 AM 41.7°F5.4°C 37.4°F3.0°C 84% 5.2 mph NNW8.4 kmh NNW 12.5 mph20.1 kmh 30.18 in1022.0 mb 0.00 in0.0 mm 0.00 in0.0 mm 0.00 in0.0 mm
04:00 AM 41.9°F5.5°C 37.4°F3.0°C 84% 6.5 mph NW10.5 kmh NW 12.5 mph20.1 kmh 30.18 in1022.0 mb 0.00 in0.0 mm 0.00 in0.0 mm 0.00 in0.0 mm
03:57 AM 42.2°F5.7°C 37.4°F3.0°C 83% 6.9 mph NW11.1 kmh NW 10.1 mph16.3 kmh 30.18 in1022.0 mb 0.00 in0.0 mm 0.00 in0.0 mm 0.00 in0.0 mm
03:54 AM 42.2°F5.7°C 37.4°F3.0°C 83% 8.6 mph NW13.8 kmh NW 15.0 mph24.1 kmh 30.17 in1021.7 mb 0.00 in0.0 mm 0.00 in0.0 mm 0.00 in0.0 mm
03:51 AM 42.1°F5.6°C 37.2°F2.9°C 82% 8.6 mph NW13.8 kmh NW 12.5 mph20.1 kmh 30.16 in1021.3 mb 0.00 in0.0 mm 0.00 in0.0 mm 0.00 in0.0 mm
03:48 AM 42.3°F5.7°C 37.2°F2.9°C 82% 9.9 mph NW15.9 kmh NW 17.4 mph28.0 kmh 30.16 in1021.3 mb 0.00 in0.0 mm 0.00 in0.0 mm 0.00 in0.0 mm
03:45 AM 42.4°F5.8°C 37.3°F2.9°C 82% 9.7 mph N15.6 kmh N 12.5 mph20.1 kmh 30.16 in1021.3 mb 0.00 in0.0 mm 0.00 in0.0 mm 0.00 in0.0 mm
03:42 AM 42.3°F5.7°C 37.0°F2.8°C 81% 5.5 mph NW8.9 kmh NW 12.5 mph20.1 kmh 30.16 in1021.3 mb 0.00 in0.0 mm 0.00 in0.0 mm 0.00 in0.0 mm
03:39 AM 42.3°F5.7°C 36.9°F2.7°C 81% 6.0 mph NW9.7 kmh NW 12.5 mph20.1 kmh 30.16 in1021.3 mb 0.00 in0.0 mm 0.00 in0.0 mm 0.00 in0.0 mm
03:36 AM 42.6°F5.9°C 36.9°F2.7°C 80% 7.0 mph NW11.3 kmh NW 12.5 mph20.1 kmh 30.16 in1021.3 mb 0.00 in0.0 mm 0.00 in0.0 mm 0.00 in0.0 mm
03:33 AM 42.9°F6.1°C 36.9°F2.7°C 79% 3.8 mph NNW6.1 kmh NNW 4.9 mph7.9 kmh 30.16 in1021.3 mb 0.00 in0.0 mm 0.00 in0.0 mm 0.00 in0.0 mm
03:30 AM 42.9°F6.1°C 36.8°F2.7°C 79% 5.4 mph NW8.7 kmh NW 12.5 mph20.1 kmh 30.15 in1021.0 mb 0.00 in0.0 mm 0.00 in0.0 mm 0.00 in0.0 mm
03:27 AM 42.8°F6.0°C 36.5°F2.5°C 78% 3.2 mph NNW5.1 kmh NNW 7.6 mph12.2 kmh 30.14 in1020.7 mb 0.00 in0.0 mm 0.00 in0.0 mm 0.00 in0.0 mm
03:24 AM 42.8°F6.0°C 36.4°F2.4°C 78% 4.6 mph NNW7.4 kmh NNW 7.6 mph12.2 kmh 30.14 in1020.7 mb 0.00 in0.0 mm 0.00 in0.0 mm 0.00 in0.0 mm
03:21 AM 42.8°F6.0°C 36.4°F2.4°C 78% 4.5 mph N7.2 kmh N 10.1 mph16.3 kmh 30.13 in1020.3 mb 0.00 in0.0 mm 0.00 in0.0 mm 0.00 in0.0 mm
03:18 AM 42.8°F6.0°C 36.4°F2.4°C 78% 4.6 mph NNW7.4 kmh NNW 10.1 mph16.3 kmh 30.13 in1020.3 mb 0.00 in0.0 mm 0.00 in0.0 mm 0.00 in0.0 mm
03:15 AM 42.7°F5.9°C 36.4°F2.4°C 78% 6.5 mph NNE10.5 kmh NNE 12.5 mph20.1 kmh 30.12 in1020.0 mb 0.00 in0.0 mm 0.00 in0.0 mm 0.00 in0.0 mm
03:12 AM 42.6°F5.9°C 36.6°F2.6°C 79% 5.9 mph N9.5 kmh N 17.4 mph28.0 kmh 30.12 in1020.0 mb 0.00 in0.0 mm 0.00 in0.0 mm 0.00 in0.0 mm
03:09 AM 42.7°F5.9°C 36.7°F2.6°C 79% 6.3 mph N10.1 kmh N 12.5 mph20.1 kmh 30.12 in1020.0 mb 0.00 in0.0 mm 0.00 in0.0 mm 0.00 in0.0 mm
03:06 AM 42.8°F6.0°C 36.7°F2.6°C 79% 5.1 mph NNW8.2 kmh NNW 15.0 mph24.1 kmh 30.12 in1020.0 mb 0.00 in0.0 mm 0.00 in0.0 mm 0.00 in0.0 mm
03:03 AM 42.9°F6.1°C 36.8°F2.7°C 79% 7.9 mph N12.7 kmh N 12.5 mph20.1 kmh 30.12 in1020.0 mb 0.00 in0.0 mm 0.00 in0.0 mm 0.00 in0.0 mm
03:00 AM 43.0°F6.1°C 36.9°F2.7°C 79% 7.2 mph NNW11.6 kmh NNW 12.5 mph20.1 kmh 30.12 in1020.0 mb 0.00 in0.0 mm 0.00 in0.0 mm 0.00 in0.0 mm
02:57 AM 43.0°F6.1°C 36.9°F2.7°C 79% 8.0 mph NW12.9 kmh NW 12.5 mph20.1 kmh 30.11 in1019.6 mb 0.00 in0.0 mm 0.00 in0.0 mm 0.00 in0.0 mm
02:54 AM 43.0°F6.1°C 36.9°F2.7°C 79% 8.0 mph NW12.9 kmh NW 12.5 mph20.1 kmh 30.12 in1020.0 mb 0.00 in0.0 mm 0.00 in0.0 mm 0.00 in0.0 mm
02:51 AM 43.0°F6.1°C 36.9°F2.7°C 79% 7.3 mph NW11.7 kmh NW 17.4 mph28.0 kmh 30.12 in1020.0 mb 0.00 in0.0 mm 0.00 in0.0 mm 0.00 in0.0 mm
02:48 AM 43.0°F6.1°C 36.9°F2.7°C 79% 5.4 mph NW8.7 kmh NW 7.6 mph12.2 kmh 30.12 in1020.0 mb 0.00 in0.0 mm 0.00 in0.0 mm 0.00 in0.0 mm
02:45 AM 43.0°F6.1°C 36.9°F2.7°C 79% 5.4 mph NNE8.7 kmh NNE 7.6 mph12.2 kmh 30.12 in1020.0 mb 0.00 in0.0 mm 0.00 in0.0 mm 0.00 in0.0 mm
02:42 AM 43.0°F6.1°C 36.9°F2.7°C 79% 4.0 mph NW6.4 kmh NW 10.1 mph16.3 kmh 30.12 in1020.0 mb 0.00 in0.0 mm 0.00 in0.0 mm 0.00 in0.0 mm
02:39 AM 43.0°F6.1°C 36.9°F2.7°C 79% 7.5 mph NW12.1 kmh NW 17.4 mph28.0 kmh 30.12 in1020.0 mb 0.00 in0.0 mm 0.00 in0.0 mm 0.00 in0.0 mm
02:36 AM 43.1°F6.2°C 37.0°F2.8°C 79% 7.0 mph NNW11.3 kmh NNW 10.1 mph16.3 kmh 30.12 in1020.0 mb 0.00 in0.0 mm 0.00 in0.0 mm 0.00 in0.0 mm
02:33 AM 43.1°F6.2°C 37.0°F2.8°C 79% 8.6 mph NNW13.8 kmh NNW 20.1 mph32.3 kmh 30.12 in1020.0 mb 0.00 in0.0 mm 0.00 in0.0 mm 0.00 in0.0 mm
02:30 AM 43.3°F6.3°C 37.2°F2.9°C 79% 6.1 mph NNW9.8 kmh NNW 12.5 mph20.1 kmh 30.12 in1020.0 mb 0.00 in0.0 mm 0.00 in0.0 mm 0.00 in0.0 mm
02:27 AM 43.6°F6.4°C 37.5°F3.1°C 79% 6.2 mph NW10.0 kmh NW 10.1 mph16.3 kmh 30.12 in1020.0 mb 0.00 in0.0 mm 0.00 in0.0 mm 0.00 in0.0 mm
02:24 AM 43.5°F6.4°C 37.4°F3.0°C 79% 5.2 mph NNW8.4 kmh NNW 7.6 mph12.2 kmh 30.12 in1020.0 mb 0.00 in0.0 mm 0.00 in0.0 mm 0.00 in0.0 mm
02:21 AM 43.0°F6.1°C 36.7°F2.6°C 78% 3.6 mph N5.8 kmh N 7.6 mph12.2 kmh 30.12 in1020.0 mb 0.00 in0.0 mm 0.00 in0.0 mm 0.00 in0.0 mm
02:18 AM 43.6°F6.4°C 37.2°F2.9°C 78% 10.2 mph NNW16.4 kmh NNW 15.0 mph24.1 kmh 30.12 in1020.0 mb 0.00 in0.0 mm 0.00 in0.0 mm 0.00 in0.0 mm
02:15 AM 43.7°F6.5°C 37.0°F2.8°C 77% 3.6 mph NW5.8 kmh NW 7.6 mph12.2 kmh 30.11 in1019.6 mb 0.00 in0.0 mm 0.00 in0.0 mm 0.00 in0.0 mm
02:12 AM 43.7°F6.5°C 36.6°F2.6°C 76% 5.8 mph NNW9.3 kmh NNW 10.1 mph16.3 kmh 30.11 in1019.6 mb 0.00 in0.0 mm 0.00 in0.0 mm 0.00 in0.0 mm
02:09 AM 43.7°F6.5°C 36.4°F2.4°C 75% 5.0 mph NW8.0 kmh NW 7.6 mph12.2 kmh 30.11 in1019.6 mb 0.00 in0.0 mm 0.00 in0.0 mm 0.00 in0.0 mm
02:06 AM 43.8°F6.6°C 36.2°F2.3°C 74% 9.3 mph NNW15.0 kmh NNW 15.0 mph24.1 kmh 30.12 in1020.0 mb 0.00 in0.0 mm 0.00 in0.0 mm 0.00 in0.0 mm
02:03 AM 43.7°F6.5°C 35.8°F2.1°C 74% 6.4 mph N10.3 kmh N 10.1 mph16.3 kmh 30.12 in1020.0 mb 0.00 in0.0 mm 0.00 in0.0 mm 0.00 in0.0 mm
02:00 AM 43.9°F6.6°C 35.8°F2.1°C 73% 8.7 mph NNW14.0 kmh NNW 12.5 mph20.1 kmh 30.13 in1020.3 mb 0.00 in0.0 mm 0.00 in0.0 mm 0.00 in0.0 mm
01:57 AM 43.9°F6.6°C 35.6°F2.0°C 72% 6.7 mph N10.8 kmh N 10.1 mph16.3 kmh 30.13 in1020.3 mb 0.00 in0.0 mm 0.00 in0.0 mm 0.00 in0.0 mm
01:54 AM 44.1°F6.7°C 35.5°F1.9°C 72% 9.6 mph NNW15.4 kmh NNW 15.0 mph24.1 kmh 30.13 in1020.3 mb 0.00 in0.0 mm 0.00 in0.0 mm 0.00 in0.0 mm
01:51 AM 44.4°F6.9°C 35.4°F1.9°C 70% 8.4 mph N13.5 kmh N 12.5 mph20.1 kmh 30.12 in1020.0 mb 0.00 in0.0 mm 0.00 in0.0 mm 0.00 in0.0 mm
01:48 AM 44.7°F7.1°C 35.6°F2.0°C 70% 8.0 mph N12.9 kmh N 12.5 mph20.1 kmh 30.12 in1020.0 mb 0.00 in0.0 mm 0.00 in0.0 mm 0.00 in0.0 mm
01:45 AM 44.6°F7.0°C 35.2°F1.8°C 69% 4.4 mph NW7.1 kmh NW 10.1 mph16.3 kmh 30.12 in1020.0 mb 0.00 in0.0 mm 0.00 in0.0 mm 0.00 in0.0 mm
01:42 AM 44.7°F7.1°C 35.2°F1.8°C 69% 5.1 mph NW8.2 kmh NW 10.1 mph16.3 kmh 30.12 in1020.0 mb 0.00 in0.0 mm 0.00 in0.0 mm 0.00 in0.0 mm
01:39 AM 44.8°F7.1°C 35.3°F1.8°C 69% 5.0 mph N8.0 kmh N 7.6 mph12.2 kmh 30.12 in1020.0 mb 0.00 in0.0 mm 0.00 in0.0 mm 0.00 in0.0 mm
01:36 AM 44.8°F7.1°C 35.3°F1.8°C 69% 3.8 mph N6.1 kmh N 7.6 mph12.2 kmh 30.11 in1019.6 mb 0.00 in0.0 mm 0.00 in0.0 mm 0.00 in0.0 mm
01:33 AM 44.9°F7.2°C 35.4°F1.9°C 69% 4.4 mph N7.1 kmh N 7.6 mph12.2 kmh 30.12 in1020.0 mb 0.00 in0.0 mm 0.00 in0.0 mm 0.00 in0.0 mm
01:30 AM 45.0°F7.2°C 35.2°F1.8°C 68% 6.2 mph N10.0 kmh N 10.1 mph16.3 kmh 30.11 in1019.6 mb 0.00 in0.0 mm 0.00 in0.0 mm 0.00 in0.0 mm
01:27 AM 45.1°F7.3°C 35.2°F1.8°C 68% 7.5 mph NNW12.1 kmh NNW 10.1 mph16.3 kmh 30.12 in1020.0 mb 0.00 in0.0 mm 0.00 in0.0 mm 0.00 in0.0 mm
01:24 AM 45.5°F7.5°C 35.5°F1.9°C 68% 6.2 mph NW10.0 kmh NW 10.1 mph16.3 kmh 30.11 in1019.6 mb 0.00 in0.0 mm 0.00 in0.0 mm 0.00 in0.0 mm
01:21 AM 45.6°F7.6°C 35.4°F1.9°C 67% 7.6 mph NNW12.2 kmh NNW 12.5 mph20.1 kmh 30.11 in1019.6 mb 0.00 in0.0 mm 0.00 in0.0 mm 0.00 in0.0 mm
01:18 AM 45.8°F7.7°C 35.5°F1.9°C 67% 5.2 mph NNW8.4 kmh NNW 10.1 mph16.3 kmh 30.12 in1020.0 mb 0.00 in0.0 mm 0.00 in0.0 mm 0.00 in0.0 mm
01:15 AM 45.9°F7.7°C 35.3°F1.8°C 66% 2.7 mph NNW4.3 kmh NNW 7.6 mph12.2 kmh 30.11 in1019.6 mb 0.00 in0.0 mm 0.00 in0.0 mm 0.00 in0.0 mm
01:12 AM 46.1°F7.8°C 35.4°F1.9°C 66% 9.4 mph NW15.1 kmh NW 15.0 mph24.1 kmh 30.11 in1019.6 mb 0.00 in0.0 mm 0.00 in0.0 mm 0.00 in0.0 mm
01:09 AM 46.3°F7.9°C 35.7°F2.1°C 66% 5.9 mph NW9.5 kmh NW 10.1 mph16.3 kmh 30.11 in1019.6 mb 0.00 in0.0 mm 0.00 in0.0 mm 0.00 in0.0 mm
01:06 AM 46.4°F8.0°C 35.4°F1.9°C 65% 4.6 mph NW7.4 kmh NW 10.1 mph16.3 kmh 30.12 in1020.0 mb 0.00 in0.0 mm 0.00 in0.0 mm 0.00 in0.0 mm
01:03 AM 46.4°F8.0°C 35.3°F1.8°C 65% 6.5 mph NW10.5 kmh NW 15.0 mph24.1 kmh 30.11 in1019.6 mb 0.00 in0.0 mm 0.00 in0.0 mm 0.00 in0.0 mm
01:00 AM 46.5°F8.1°C 35.4°F1.9°C 65% 7.2 mph NW11.6 kmh NW 12.5 mph20.1 kmh 30.12 in1020.0 mb 0.00 in0.0 mm 0.00 in0.0 mm 0.00 in0.0 mm
12:57 AM 46.6°F8.1°C 35.5°F1.9°C 65% 11.0 mph NNW17.7 kmh NNW 17.4 mph28.0 kmh 30.11 in1019.6 mb 0.00 in0.0 mm 0.00 in0.0 mm 0.00 in0.0 mm
12:54 AM 46.8°F8.2°C 35.6°F2.0°C 65% 4.6 mph NW7.4 kmh NW 7.6 mph12.2 kmh 30.11 in1019.6 mb 0.00 in0.0 mm 0.00 in0.0 mm 0.00 in0.0 mm
12:51 AM 46.6°F8.1°C 35.5°F1.9°C 65% 6.8 mph NNW10.9 kmh NNW 15.0 mph24.1 kmh 30.11 in1019.6 mb 0.00 in0.0 mm 0.00 in0.0 mm 0.00 in0.0 mm
12:48 AM 46.8°F8.2°C 35.3°F1.8°C 64% 7.0 mph NNW11.3 kmh NNW 12.5 mph20.1 kmh 30.11 in1019.6 mb 0.00 in0.0 mm 0.00 in0.0 mm 0.00 in0.0 mm
12:45 AM 46.7°F8.2°C 35.2°F1.8°C 64% 10.4 mph NW16.7 kmh NW 20.1 mph32.3 kmh 30.10 in1019.3 mb 0.00 in0.0 mm 0.00 in0.0 mm 0.00 in0.0 mm
12:42 AM 46.9°F8.3°C 35.3°F1.8°C 64% 9.2 mph NW14.8 kmh NW 12.5 mph20.1 kmh 30.10 in1019.3 mb 0.00 in0.0 mm 0.00 in0.0 mm 0.00 in0.0 mm
12:39 AM 47.0°F8.3°C 35.5°F1.9°C 64% 8.3 mph NW13.4 kmh NW 12.5 mph20.1 kmh 30.11 in1019.6 mb 0.00 in0.0 mm 0.00 in0.0 mm 0.00 in0.0 mm
12:36 AM 47.2°F8.4°C 35.4°F1.9°C 63% 6.8 mph NNW10.9 kmh NNW 15.0 mph24.1 kmh 30.10 in1019.3 mb 0.00 in0.0 mm 0.00 in0.0 mm 0.00 in0.0 mm
12:33 AM 47.2°F8.4°C 35.2°F1.8°C 63% 6.7 mph NNW10.8 kmh NNW 15.0 mph24.1 kmh 30.10 in1019.3 mb 0.00 in0.0 mm 0.00 in0.0 mm 0.00 in0.0 mm
12:30 AM 47.4°F8.6°C 35.4°F1.9°C 63% 14.4 mph NW23.2 kmh NW 22.6 mph36.4 kmh 30.10 in1019.3 mb 0.00 in0.0 mm 0.00 in0.0 mm 0.00 in0.0 mm
12:27 AM 47.5°F8.6°C 35.5°F1.9°C 63% 6.2 mph NW10.0 kmh NW 10.1 mph16.3 kmh 30.10 in1019.3 mb 0.00 in0.0 mm 0.00 in0.0 mm 0.00 in0.0 mm
12:24 AM 47.7°F8.7°C 35.4°F1.9°C 62% 10.4 mph NNW16.7 kmh NNW 20.1 mph32.3 kmh 30.10 in1019.3 mb 0.00 in0.0 mm 0.00 in0.0 mm 0.00 in0.0 mm
12:21 AM 47.8°F8.8°C 35.4°F1.9°C 62% 5.0 mph NW8.0 kmh NW 12.5 mph20.1 kmh 30.09 in1019.0 mb 0.00 in0.0 mm 0.00 in0.0 mm 0.00 in0.0 mm
12:18 AM 47.8°F8.8°C 35.4°F1.9°C 62% 9.6 mph NNW15.4 kmh NNW 17.4 mph28.0 kmh 30.10 in1019.3 mb 0.00 in0.0 mm 0.00 in0.0 mm 0.00 in0.0 mm
12:15 AM 48.0°F8.9°C 35.6°F2.0°C 62% 10.8 mph NNW17.4 kmh NNW 20.1 mph32.3 kmh 30.10 in1019.3 mb 0.00 in0.0 mm 0.00 in0.0 mm 0.00 in0.0 mm
12:12 AM 48.0°F8.9°C 35.5°F1.9°C 62% 4.2 mph NNW6.8 kmh NNW 10.1 mph16.3 kmh 30.09 in1019.0 mb 0.00 in0.0 mm 0.00 in0.0 mm 0.00 in0.0 mm
12:09 AM 48.0°F8.9°C 35.6°F2.0°C 62% 9.7 mph NW15.6 kmh NW 17.4 mph28.0 kmh 30.09 in1019.0 mb 0.00 in0.0 mm 0.00 in0.0 mm 0.00 in0.0 mm
12:06 AM 48.0°F8.9°C 35.6°F2.0°C 62% 7.2 mph NE11.6 kmh NE 15.0 mph24.1 kmh 30.09 in1019.0 mb 0.00 in0.0 mm 0.00 in0.0 mm 0.00 in0.0 mm
12:03 AM 48.2°F9.0°C 35.4°F1.9°C 61% 6.3 mph NNW10.1 kmh NNW 12.5 mph20.1 kmh 30.08 in1018.6 mb 0.00 in0.0 mm 0.00 in0.0 mm 0.00 in0.0 mm
12:00 AM 48.1°F8.9°C 35.3°F1.8°C 61% 5.7 mph NW9.2 kmh NW 17.4 mph28.0 kmh 30.08 in1018.6 mb 0.00 in0.0 mm 0.00 in0.0 mm 0.00 in0.0 mm